Time;durP1;ratioP1;P1;durP2;ratioP2;P2;SDS_P1;SDS_P2;PMS_P1;PMS_P2;Temp;Humidity;BMP_temperature;BMP_pressure;BME280_temperature;BME280_humidity;BME280_pressure;Samples;Min_cycle;Max_cycle;Signal;HPM_P1;HPM_P2
2022/06/30 00:00:29;;;;;;;7.15;6.45;;;19.80;99.90;;;;;;5036031;28;20078;-86
2022/06/30 00:02:55;;;;;;;8.75;5.63;;;19.80;99.90;;;;;;5019856;28;20044;-86
2022/06/30 00:05:21;;;;;;;10.77;6.00;;;19.80;99.90;;;;;;5036470;28;20040;-85
2022/06/30 00:07:47;;;;;;;9.77;6.05;;;19.80;99.90;;;;;;5036231;28;20029;-85
2022/06/30 00:10:13;;;;;;;7.70;5.72;;;19.80;99.90;;;;;;5069584;28;20029;-85
2022/06/30 00:12:40;;;;;;;8.68;5.78;;;19.80;99.90;;;;;;5048855;28;20475;-86
2022/06/30 00:15:07;;;;;;;10.40;5.38;;;19.80;99.90;;;;;;5035578;28;20482;-86
2022/06/30 00:17:33;;;;;;;7.85;5.28;;;19.80;99.90;;;;;;5019937;28;20029;-85
2022/06/30 00:19:59;;;;;;;7.70;5.10;;;19.80;99.90;;;;;;5035550;28;20036;-87
2022/06/30 00:22:25;;;;;;;8.40;5.80;;;19.80;99.90;;;;;;5051881;28;20508;-85
2022/06/30 00:24:52;;;;;;;7.28;6.45;;;19.90;99.90;;;;;;5036063;28;20123;-86
2022/06/30 00:27:18;;;;;;;9.88;6.22;;;19.80;99.90;;;;;;5049264;28;20043;-88
2022/06/30 00:29:44;;;;;;;13.35;7.82;;;19.80;99.90;;;;;;5018809;28;20425;-85
2022/06/30 00:32:10;;;;;;;10.85;6.80;;;19.80;99.90;;;;;;5035105;28;20094;-86
2022/06/30 00:34:36;;;;;;;7.63;6.47;;;19.90;99.90;;;;;;5035795;28;20036;-86
2022/06/30 00:37:02;;;;;;;10.20;6.65;;;19.80;99.90;;;;;;5052334;28;20582;-85
2022/06/30 00:39:29;;;;;;;8.85;6.55;;;19.80;99.90;;;;;;5020878;28;20098;-86
2022/06/30 00:41:55;;;;;;;10.52;7.15;;;19.80;99.90;;;;;;5023139;28;20040;-85
2022/06/30 00:44:21;;;;;;;11.10;7.13;;;19.70;99.90;;;;;;5036710;28;20119;-85
2022/06/30 00:46:48;;;;;;;12.95;6.93;;;19.70;99.90;;;;;;5033355;28;20033;-85
2022/06/30 00:49:16;;;;;;;10.48;6.70;;;19.70;99.90;;;;;;5055461;28;20085;-87
2022/06/30 00:51:41;;;;;;;9.32;6.47;;;19.60;99.90;;;;;;5072750;28;20033;-86
2022/06/30 00:54:07;;;;;;;9.45;6.47;;;19.60;99.90;;;;;;5019988;28;20041;-86
2022/06/30 00:56:34;;;;;;;9.13;6.82;;;19.60;99.90;;;;;;5015491;28;20043;-87
2022/06/30 00:59:05;;;;;;;10.32;6.78;;;19.50;99.90;;;;;;5019512;28;20036;-86
2022/06/30 01:01:32;;;;;;;11.73;6.28;;;19.50;99.90;;;;;;5052934;28;20510;-85
2022/06/30 01:04:00;;;;;;;9.73;6.53;;;19.50;99.90;;;;;;5035943;28;20032;-87
2022/06/30 01:06:27;;;;;;;10.73;7.30;;;19.50;99.90;;;;;;5037626;28;20028;-86
2022/06/30 01:08:53;;;;;;;10.82;6.68;;;19.50;99.90;;;;;;5034218;28;20029;-85
2022/06/30 01:14:03;;;;;;;12.38;7.60;;;19.40;99.90;;;;;;5058202;28;20089;-86
2022/06/30 01:16:30;;;;;;;14.40;7.50;;;19.40;99.90;;;;;;5071606;28;20036;-86
2022/06/30 01:18:56;;;;;;;13.30;6.93;;;19.30;99.90;;;;;;5054899;28;20025;-86
2022/06/30 01:21:26;;;;;;;11.15;7.32;;;19.30;99.90;;;;;;5027329;28;20326;-85
2022/06/30 01:23:52;;;;;;;10.38;6.50;;;19.30;99.90;;;;;;5044014;28;20028;-88
2022/06/30 01:26:18;;;;;;;14.10;6.75;;;19.30;99.90;;;;;;5038598;28;20039;-87
2022/06/30 01:28:43;;;;;;;11.82;6.90;;;19.30;99.90;;;;;;5038366;28;20032;-86
2022/06/30 01:31:09;;;;;;;10.57;6.55;;;19.30;99.90;;;;;;5034875;28;20106;-85
2022/06/30 01:33:35;;;;;;;13.32;6.72;;;19.30;99.90;;;;;;5022442;28;20032;-86
2022/06/30 01:36:01;;;;;;;11.65;6.38;;;19.30;99.90;;;;;;5055194;28;20029;-86
2022/06/30 01:38:27;;;;;;;12.05;7.55;;;19.30;99.90;;;;;;5038293;28;20453;-86
2022/06/30 01:40:52;;;;;;;12.32;7.20;;;19.20;99.90;;;;;;5018793;28;20037;-87
2022/06/30 01:43:18;;;;;;;12.80;7.80;;;19.20;99.90;;;;;;5021645;28;20532;-85
2022/06/30 01:45:44;;;;;;;10.40;6.68;;;19.20;99.90;;;;;;5035193;28;20033;-85
2022/06/30 01:48:10;;;;;;;12.02;7.07;;;19.20;99.90;;;;;;5054639;28;20115;-86
2022/06/30 01:50:37;;;;;;;16.67;7.22;;;19.10;99.90;;;;;;5059835;28;20482;-86
2022/06/30 01:53:03;;;;;;;16.05;7.93;;;19.10;99.90;;;;;;5038706;28;20036;-85
2022/06/30 01:55:29;;;;;;;14.15;6.75;;;19.10;99.90;;;;;;5038298;28;20040;-86
2022/06/30 01:57:56;;;;;;;12.52;7.57;;;19.10;99.90;;;;;;5035029;28;20037;-86
2022/06/30 02:00:26;;;;;;;13.48;7.47;;;19.00;99.90;;;;;;5037623;28;20037;-87
2022/06/30 02:02:53;;;;;;;15.18;7.28;;;19.00;99.90;;;;;;5022813;28;20049;-86
2022/06/30 02:05:19;;;;;;;15.52;7.85;;;19.00;99.90;;;;;;5038078;28;20129;-87
2022/06/30 02:07:45;;;;;;;15.82;7.10;;;19.00;99.90;;;;;;5038555;28;20549;-86
2022/06/30 02:10:14;;;;;;;12.90;6.28;;;19.00;99.90;;;;;;5054361;28;20040;-86
2022/06/30 02:12:47;;;;;;;11.45;6.90;;;19.00;99.90;;;;;;5038048;28;20111;-86
2022/06/30 02:15:22;;;;;;;12.70;6.78;;;18.90;99.90;;;;;;5037912;28;20111;-86
2022/06/30 02:17:50;;;;;;;12.15;6.38;;;18.90;99.90;;;;;;5038017;28;20051;-87
2022/06/30 02:20:20;;;;;;;14.55;6.65;;;18.90;99.90;;;;;;5037727;28;20032;-86
2022/06/30 02:22:48;;;;;;;12.90;6.60;;;18.90;99.90;;;;;;5038176;28;20055;-87
2022/06/30 02:25:14;;;;;;;15.73;7.68;;;18.90;99.90;;;;;;5038007;28;20536;-87
2022/06/30 02:27:40;;;;;;;13.48;6.80;;;18.80;99.90;;;;;;5036685;28;20402;-88
2022/06/30 02:30:06;;;;;;;9.35;6.32;;;18.80;99.90;;;;;;5026727;28;20028;-85
2022/06/30 02:32:32;;;;;;;11.20;7.10;;;18.70;99.90;;;;;;5049609;28;20025;-86
2022/06/30 02:34:59;;;;;;;12.50;6.85;;;18.70;99.90;;;;;;5054570;28;20025;-86
2022/06/30 02:37:24;;;;;;;13.80;7.68;;;18.70;99.90;;;;;;5050822;28;20029;-86
2022/06/30 02:39:50;;;;;;;15.65;7.72;;;18.60;99.90;;;;;;5036791;28;20037;-87
2022/06/30 02:42:16;;;;;;;14.60;8.10;;;18.60;99.90;;;;;;5070693;28;20522;-86
2022/06/30 02:44:42;;;;;;;12.40;7.22;;;18.60;99.90;;;;;;5037708;28;20037;-86
2022/06/30 02:47:08;;;;;;;14.13;7.03;;;18.50;99.90;;;;;;5053939;28;20039;-86
2022/06/30 02:49:33;;;;;;;12.48;7.43;;;18.50;99.90;;;;;;5036431;28;20040;-86
2022/06/30 02:51:59;;;;;;;15.13;7.78;;;18.50;99.90;;;;;;5036832;28;20213;-85
2022/06/30 02:54:25;;;;;;;13.88;7.03;;;18.50;99.90;;;;;;5054123;28;20090;-84
2022/06/30 02:56:51;;;;;;;15.88;7.65;;;18.50;99.90;;;;;;5020974;28;20060;-86
2022/06/30 02:59:16;;;;;;;16.17;7.53;;;18.40;99.90;;;;;;5036404;28;20546;-86
2022/06/30 03:01:42;;;;;;;10.88;6.95;;;18.40;99.90;;;;;;5020079;28;20469;-86
2022/06/30 03:04:08;;;;;;;12.25;6.75;;;18.40;99.90;;;;;;5033802;28;20033;-87
2022/06/30 03:06:34;;;;;;;10.63;6.57;;;18.40;99.90;;;;;;5009044;28;20041;-87
2022/06/30 03:09:02;;;;;;;17.95;7.55;;;18.40;99.90;;;;;;5036412;28;20755;-88
2022/06/30 03:11:28;;;;;;;11.63;7.00;;;18.40;99.90;;;;;;5037326;28;20032;-86
2022/06/30 03:13:54;;;;;;;13.10;7.25;;;18.40;99.90;;;;;;5020689;28;20044;-86
2022/06/30 03:16:20;;;;;;;12.88;7.85;;;18.40;99.90;;;;;;5033545;28;20106;-87
2022/06/30 03:18:46;;;;;;;12.18;7.30;;;18.40;99.90;;;;;;5049924;28;20403;-87
2022/06/30 03:21:12;;;;;;;10.05;7.65;;;18.40;99.90;;;;;;5053080;28;20491;-86
2022/06/30 03:23:38;;;;;;;12.25;7.22;;;18.40;99.90;;;;;;5053405;28;20123;-86
2022/06/30 03:26:04;;;;;;;13.45;8.68;;;18.40;99.90;;;;;;5037831;28;20071;-88
2022/06/30 03:28:32;;;;;;;10.68;6.75;;;18.30;99.90;;;;;;5033242;28;20487;-86
2022/06/30 03:30:58;;;;;;;14.15;7.15;;;18.40;99.90;;;;;;5052693;28;20035;-86
2022/06/30 03:33:24;;;;;;;11.65;7.32;;;18.30;99.90;;;;;;5033069;28;20575;-86
2022/06/30 03:35:50;;;;;;;14.65;7.20;;;18.30;99.90;;;;;;5077089;28;20547;-86
2022/06/30 03:38:16;;;;;;;10.85;7.45;;;18.30;99.90;;;;;;5036221;28;20040;-85
2022/06/30 03:40:42;;;;;;;10.48;6.95;;;18.30;99.90;;;;;;5052883;28;20402;-87
2022/06/30 03:43:08;;;;;;;11.88;7.32;;;18.30;99.90;;;;;;5032854;28;20534;-88
2022/06/30 03:45:34;;;;;;;16.73;7.63;;;18.30;99.90;;;;;;5036530;28;20021;-86
2022/06/30 03:48:02;;;;;;;18.42;9.05;;;18.30;99.90;;;;;;5052861;28;20189;-86
2022/06/30 03:50:44;;;;;;;15.65;8.43;;;18.30;99.90;;;;;;5036462;28;20044;-89
2022/06/30 03:53:13;;;;;;;11.37;7.77;;;18.30;99.90;;;;;;5053168;28;20150;-85
2022/06/30 03:55:39;;;;;;;15.82;7.90;;;18.40;99.90;;;;;;5035943;28;20503;-87
2022/06/30 03:58:07;;;;;;;13.02;8.00;;;18.30;99.90;;;;;;5019441;28;20039;-86
2022/06/30 04:00:34;;;;;;;12.27;8.45;;;18.30;99.90;;;;;;5029292;28;20035;-86
2022/06/30 04:03:01;;;;;;;13.00;8.73;;;18.30;99.90;;;;;;5016935;28;20045;-86
2022/06/30 04:05:27;;;;;;;13.43;7.47;;;18.30;99.90;;;;;;5019326;28;20044;-88
2022/06/30 04:07:52;;;;;;;12.35;7.45;;;18.30;99.90;;;;;;5036273;28;20037;-87
2022/06/30 04:10:18;;;;;;;12.25;7.85;;;18.30;99.90;;;;;;5037035;28;20520;-87
2022/06/30 04:12:44;;;;;;;12.80;7.93;;;18.30;99.90;;;;;;5032438;28;20033;-87
2022/06/30 04:15:10;;;;;;;11.35;7.38;;;18.30;99.90;;;;;;5031785;28;20044;-87
2022/06/30 04:17:36;;;;;;;11.18;6.50;;;18.30;99.90;;;;;;5049176;28;20082;-87
2022/06/30 04:20:04;;;;;;;11.13;6.90;;;18.40;99.90;;;;;;5050727;28;20044;-85
2022/06/30 04:22:30;;;;;;;8.85;6.53;;;18.40;99.90;;;;;;5051809;28;20068;-85
2022/06/30 04:24:56;;;;;;;10.77;7.00;;;18.50;99.90;;;;;;5069103;28;20052;-88
2022/06/30 04:27:22;;;;;;;11.40;7.97;;;18.50;99.90;;;;;;5025558;28;20514;-86
2022/06/30 04:29:48;;;;;;;12.93;7.70;;;18.50;99.90;;;;;;5015203;28;20043;-85
2022/06/30 04:34:58;;;;;;;11.77;7.38;;;18.50;99.90;;;;;;5069157;28;20032;-87
2022/06/30 04:37:24;;;;;;;12.10;7.38;;;18.50;99.90;;;;;;5035617;28;20035;-86
2022/06/30 04:41:23;;;;;;;12.27;7.85;;;18.50;99.90;;;;;;5018522;28;20123;-87
2022/06/30 04:42:35;;;;;;;10.00;7.30;;;18.60;99.90;;;;;;5051273;28;20037;-87
2022/06/30 04:45:01;;;;;;;10.57;7.55;;;18.60;99.90;;;;;;5035445;28;20063;-87
2022/06/30 04:47:27;;;;;;;13.85;8.40;;;18.70;99.90;;;;;;5036085;28;20029;-87
2022/06/30 04:49:54;;;;;;;12.57;8.98;;;18.70;99.90;;;;;;5002139;28;20550;-87
2022/06/30 04:52:20;;;;;;;13.27;8.48;;;18.70;99.90;;;;;;5028599;28;20064;-88
2022/06/30 04:54:46;;;;;;;12.52;8.48;;;18.70;99.90;;;;;;5026810;28;20048;-86
2022/06/30 04:57:11;;;;;;;15.95;8.70;;;18.70;99.90;;;;;;5038156;28;20060;-88
2022/06/30 04:59:37;;;;;;;13.65;8.63;;;18.80;99.90;;;;;;5035034;28;20032;-86
2022/06/30 05:02:03;;;;;;;15.48;9.68;;;18.80;99.90;;;;;;5018683;28;20074;-86
2022/06/30 05:04:29;;;;;;;12.80;8.38;;;18.90;99.90;;;;;;5019290;28;20039;-87
2022/06/30 05:06:55;;;;;;;13.63;8.15;;;18.90;99.90;;;;;;5035175;28;20028;-86
2022/06/30 05:09:20;;;;;;;12.48;9.52;;;18.90;99.90;;;;;;5051260;28;20056;-86
2022/06/30 05:11:46;;;;;;;17.73;9.32;;;19.00;99.90;;;;;;5032137;28;20032;-87
2022/06/30 05:14:12;;;;;;;10.07;8.20;;;19.10;99.90;;;;;;5015207;28;20033;-88
2022/06/30 05:16:38;;;;;;;13.63;8.90;;;19.20;99.90;;;;;;5018670;28;20021;-86
2022/06/30 05:19:03;;;;;;;16.58;8.70;;;19.20;99.90;;;;;;5051708;28;20161;-86
2022/06/30 05:21:29;;;;;;;12.15;7.63;;;19.30;99.90;;;;;;5042818;28;20082;-86
2022/06/30 05:26:39;;;;;;;10.45;8.35;;;19.40;99.90;;;;;;5071697;28;20398;-88
2022/06/30 05:29:05;;;;;;;15.18;8.73;;;19.40;99.90;;;;;;5038563;28;20032;-86
2022/06/30 05:31:31;;;;;;;11.77;7.45;;;19.50;99.90;;;;;;5039048;28;20522;-86
2022/06/30 05:33:56;;;;;;;10.73;7.82;;;19.60;99.90;;;;;;5037328;28;20032;-86
2022/06/30 05:36:23;;;;;;;15.43;8.68;;;19.70;99.90;;;;;;5037883;28;20033;-87
2022/06/30 05:38:48;;;;;;;14.55;8.57;;;19.80;99.90;;;;;;5022367;28;20039;-88
2022/06/30 05:41:14;;;;;;;10.68;8.55;;;19.80;99.90;;;;;;5044383;28;20036;-87
2022/06/30 05:43:40;;;;;;;13.05;8.20;;;20.00;99.90;;;;;;5052768;28;20043;-87
2022/06/30 05:46:06;;;;;;;9.73;7.65;;;20.20;99.90;;;;;;5038376;28;20037;-86
2022/06/30 05:48:31;;;;;;;11.25;8.43;;;20.50;99.90;;;;;;5054113;28;20422;-88
2022/06/30 05:50:57;;;;;;;11.02;8.25;;;20.80;99.90;;;;;;5019535;28;20036;-88
2022/06/30 05:53:23;;;;;;;11.32;8.00;;;21.10;99.90;;;;;;5054784;28;20028;-85
2022/06/30 05:55:49;;;;;;;13.15;8.65;;;21.50;99.90;;;;;;5004052;28;20029;-87
2022/06/30 05:58:17;;;;;;;11.13;8.07;;;21.80;99.90;;;;;;5038358;28;20037;-88
2022/06/30 06:00:43;;;;;;;12.35;8.60;;;22.20;99.90;;;;;;5039300;28;20737;-85
2022/06/30 06:03:08;;;;;;;16.27;8.98;;;22.50;99.90;;;;;;5084855;28;20028;-86
2022/06/30 06:05:35;;;;;;;12.18;7.65;;;22.40;99.90;;;;;;5040864;28;20032;-87
2022/06/30 06:08:08;;;;;;;15.18;8.48;;;22.40;99.90;;;;;;5036453;28;20135;-86
2022/06/30 06:10:35;;;;;;;11.30;8.35;;;22.20;99.90;;;;;;5036835;28;20036;-86
2022/06/30 06:13:01;;;;;;;10.10;8.02;;;22.10;99.90;;;;;;5053686;28;20029;-86
2022/06/30 06:15:27;;;;;;;9.38;7.70;;;22.20;99.90;;;;;;5043565;28;20614;-87
2022/06/30 06:17:53;;;;;;;13.65;8.77;;;22.40;99.90;;;;;;5037579;28;20077;-88
2022/06/30 06:20:19;;;;;;;10.05;8.23;;;22.50;99.90;;;;;;5018601;28;20036;-87
2022/06/30 06:22:45;;;;;;;12.32;9.23;;;22.50;99.90;;;;;;5021334;28;20046;-90
2022/06/30 06:25:12;;;;;;;12.05;8.80;;;22.50;99.90;;;;;;5053937;28;20384;-87
2022/06/30 06:27:39;;;;;;;13.38;9.82;;;22.40;99.90;;;;;;5038335;28;20033;-88
2022/06/30 06:30:07;;;;;;;13.00;10.05;;;22.20;99.90;;;;;;5050348;28;20040;-87
2022/06/30 06:32:33;;;;;;;12.63;9.27;;;22.10;99.90;;;;;;5054031;28;20016;-87
2022/06/30 06:34:59;;;;;;;14.25;8.90;;;22.00;99.90;;;;;;5037759;28;20530;-88
2022/06/30 06:37:27;;;;;;;14.32;9.43;;;22.00;99.90;;;;;;5036941;28;20025;-86
2022/06/30 06:39:53;;;;;;;15.50;9.68;;;22.00;99.90;;;;;;5076401;28;20040;-87
2022/06/30 06:42:18;;;;;;;14.55;10.40;;;22.10;99.90;;;;;;5048767;28;20040;-86
2022/06/30 06:44:47;;;;;;;12.65;9.13;;;22.20;99.90;;;;;;5049482;28;20040;-87
2022/06/30 06:47:15;;;;;;;25.80;16.63;;;22.30;99.90;;;;;;5018012;28;20037;-87
2022/06/30 06:49:42;;;;;;;13.77;9.90;;;22.40;99.90;;;;;;5058015;28;20040;-85
2022/06/30 06:52:09;;;;;;;13.70;9.45;;;22.70;99.90;;;;;;5033804;28;20047;-87
2022/06/30 06:54:37;;;;;;;10.75;8.48;;;23.10;99.90;;;;;;5034549;28;20033;-87
2022/06/30 06:57:03;;;;;;;15.38;9.38;;;23.60;99.90;;;;;;5034672;28;20035;-87
2022/06/30 06:59:29;;;;;;;14.13;9.63;;;23.80;99.90;;;;;;5006374;28;20086;-87
2022/06/30 07:01:55;;;;;;;10.10;8.20;;;23.80;99.90;;;;;;5035776;28;20028;-88
2022/06/30 07:04:24;;;;;;;12.30;8.50;;;23.80;99.90;;;;;;5016871;28;20040;-89
2022/06/30 07:06:49;;;;;;;12.60;8.95;;;24.20;99.90;;;;;;5047575;28;20402;-88
2022/06/30 07:09:15;;;;;;;9.60;8.45;;;24.70;99.90;;;;;;5033017;28;20037;-87
2022/06/30 07:11:41;;;;;;;11.00;7.45;;;25.00;99.90;;;;;;5048312;28;20039;-88
2022/06/30 07:14:08;;;;;;;9.75;7.85;;;25.60;99.90;;;;;;5049675;28;20024;-87
2022/06/30 07:16:34;;;;;;;10.32;8.05;;;26.10;99.90;;;;;;5032072;28;20079;-87
2022/06/30 07:18:59;;;;;;;11.80;8.20;;;26.50;99.90;;;;;;5049821;28;20024;-86
2022/06/30 07:21:25;;;;;;;12.23;7.93;;;26.70;99.90;;;;;;5038742;28;20063;-88
2022/06/30 07:23:51;;;;;;;7.40;6.55;;;26.90;99.90;;;;;;5038223;28;20033;-88
2022/06/30 07:26:17;;;;;;;13.23;7.53;;;27.10;99.90;;;;;;5032744;28;20031;-89
2022/06/30 07:28:43;;;;;;;11.05;7.53;;;27.10;99.90;;;;;;5032195;28;20028;-88
2022/06/30 07:31:10;;;;;;;9.70;7.03;;;27.20;99.90;;;;;;5037470;28;20119;-89
2022/06/30 07:33:35;;;;;;;9.43;6.85;;;27.10;99.90;;;;;;5034974;28;20032;-88
2022/06/30 07:36:01;;;;;;;8.88;7.00;;;27.30;99.90;;;;;;5033290;28;20036;-88
2022/06/30 07:38:27;;;;;;;8.88;7.20;;;27.80;99.90;;;;;;5049302;28;20036;-89
2022/06/30 07:40:53;;;;;;;10.45;7.55;;;28.00;99.90;;;;;;5032099;28;20041;-90
2022/06/30 07:43:18;;;;;;;9.00;8.10;;;28.10;99.90;;;;;;5049454;28;20031;-88
2022/06/30 07:45:44;;;;;;;11.55;8.00;;;28.10;99.90;;;;;;5048975;28;20028;-88
2022/06/30 07:48:10;;;;;;;9.93;8.38;;;27.90;99.90;;;;;;5033133;28;20519;-87
2022/06/30 07:50:36;;;;;;;11.85;8.13;;;28.10;99.90;;;;;;5012827;28;20554;-88
2022/06/30 07:53:02;;;;;;;9.02;7.90;;;27.70;99.90;;;;;;5017950;28;20083;-89
2022/06/30 07:55:27;;;;;;;7.57;6.65;;;27.90;99.90;;;;;;5047194;28;20490;-89
2022/06/30 07:57:53;;;;;;;11.60;9.45;;;28.30;99.80;;;;;;5049317;28;20115;-90
2022/06/30 08:00:24;;;;;;;12.23;9.30;;;27.90;99.00;;;;;;5047020;28;20064;-88
2022/06/30 08:02:51;;;;;;;10.75;8.40;;;27.40;99.90;;;;;;5049917;28;20036;-89
2022/06/30 08:05:16;;;;;;;10.13;8.75;;;27.60;99.90;;;;;;5049179;28;20394;-87
2022/06/30 08:07:42;;;;;;;9.30;8.30;;;27.60;99.90;;;;;;5051083;28;20045;-88
2022/06/30 08:10:08;;;;;;;10.77;8.73;;;27.60;99.90;;;;;;5041759;28;20037;-90
2022/06/30 08:12:35;;;;;;;11.57;8.70;;;27.40;99.90;;;;;;5034341;28;20081;-89
2022/06/30 08:15:01;;;;;;;12.38;8.13;;;27.30;99.90;;;;;;5052072;28;20035;-86
2022/06/30 08:17:28;;;;;;;10.10;8.48;;;27.30;99.90;;;;;;5003583;28;20059;-88
2022/06/30 08:19:53;;;;;;;10.63;8.43;;;27.30;99.90;;;;;;5031967;28;20484;-84
2022/06/30 08:22:19;;;;;;;9.63;7.82;;;27.30;99.90;;;;;;5065079;28;20136;-88
2022/06/30 08:24:45;;;;;;;9.65;7.38;;;27.30;99.90;;;;;;5035991;28;20036;-87
2022/06/30 08:27:11;;;;;;;9.98;8.30;;;27.20;99.90;;;;;;5033914;28;20028;-87
2022/06/30 08:29:37;;;;;;;10.02;7.57;;;27.30;99.90;;;;;;5049831;28;20025;-88
2022/06/30 08:32:03;;;;;;;12.02;7.25;;;27.00;99.90;;;;;;5050068;28;20579;-87
2022/06/30 08:34:29;;;;;;;8.55;6.63;;;27.10;99.90;;;;;;5019020;28;20024;-87
2022/06/30 08:36:55;;;;;;;11.95;7.47;;;27.30;99.90;;;;;;5052104;28;20376;-87
2022/06/30 08:42:06;;;;;;;8.73;7.50;;;27.30;99.90;;;;;;5067459;28;20505;-87
2022/06/30 08:45:13;;;;;;;;;;;;;;;;;;;;;
2022/06/30 08:47:47;;;;;;;7.07;6.22;;;27.50;99.90;;;;;;5059288;28;20043;-87
2022/06/30 08:50:15;;;;;;;8.30;6.13;;;27.90;99.50;;;;;;5024906;28;20399;-88
2022/06/30 08:52:51;;;;;;;11.82;6.38;;;28.10;98.40;;;;;;5028593;28;20056;-88
2022/06/30 08:55:20;;;;;;;8.60;7.20;;;28.30;96.80;;;;;;5028914;28;20032;-89
2022/06/30 08:57:47;;;;;;;8.80;7.43;;;28.40;95.50;;;;;;5033068;28;20090;-87
2022/06/30 09:00:15;;;;;;;8.38;5.88;;;28.00;96.80;;;;;;5017148;28;20059;-86
2022/06/30 09:02:42;;;;;;;8.82;6.38;;;27.80;97.40;;;;;;5037440;28;20032;-88
2022/06/30 09:05:08;;;;;;;6.30;5.55;;;27.80;97.90;;;;;;5036853;28;20047;-87
2022/06/30 09:07:34;;;;;;;8.32;5.20;;;28.00;98.10;;;;;;5052803;28;20033;-87
2022/06/30 09:10:01;;;;;;;6.03;5.43;;;28.20;96.90;;;;;;5052761;28;20032;-88
2022/06/30 09:12:27;;;;;;;6.97;6.28;;;28.30;95.70;;;;;;5036403;28;20025;-87
2022/06/30 09:14:54;;;;;;;6.10;5.50;;;27.90;95.00;;;;;;5053010;28;20086;-87
2022/06/30 09:17:22;;;;;;;7.25;5.55;;;27.70;96.50;;;;;;5036072;28;20075;-87
2022/06/30 09:19:58;;;;;;;7.07;5.85;;;27.60;97.40;;;;;;5050039;28;20033;-87
2022/06/30 09:22:25;;;;;;;5.60;5.00;;;27.50;98.70;;;;;;5031894;28;20059;-87
2022/06/30 09:24:55;;;;;;;5.80;5.28;;;27.70;99.30;;;;;;5025679;28;20067;-87
2022/06/30 09:27:21;;;;;;;6.30;4.57;;;27.70;98.10;;;;;;5052305;28;20079;-86
2022/06/30 09:30:04;;;;;;;8.98;4.95;;;27.70;94.70;;;;;;5039180;28;20047;-87
2022/06/30 09:32:42;;;;;;;5.82;4.45;;;27.70;91.20;;;;;;5036755;28;20152;-86
2022/06/30 09:35:10;;;;;;;6.45;4.47;;;27.60;91.80;;;;;;5036536;28;20099;-88
2022/06/30 09:37:36;;;;;;;5.25;4.43;;;27.50;91.10;;;;;;5035805;28;20054;-87
2022/06/30 09:40:04;;;;;;;4.38;3.97;;;27.50;91.70;;;;;;5034633;28;20414;-87
2022/06/30 09:42:44;;;;;;;5.65;4.28;;;27.60;92.30;;;;;;5053070;28;20036;-86
2022/06/30 09:45:12;;;;;;;5.60;4.00;;;27.80;90.80;;;;;;5016667;28;20025;-87
2022/06/30 09:47:52;;;;;;;4.53;3.92;;;27.80;90.90;;;;;;5053758;28;20108;-87
2022/06/30 09:50:18;;;;;;;5.80;3.90;;;27.90;90.90;;;;;;5049948;28;20037;-86
2022/06/30 09:52:44;;;;;;;7.13;4.43;;;28.10;91.30;;;;;;5033676;28;20039;-87
2022/06/30 09:55:10;;;;;;;4.25;3.78;;;28.20;86.40;;;;;;5052594;28;20108;-87
2022/06/30 09:57:42;;;;;;;5.28;4.13;;;28.30;87.90;;;;;;5036019;28;20028;-87
2022/06/30 10:00:14;;;;;;;7.65;4.20;;;28.40;89.00;;;;;;5034641;28;20033;-87
2022/06/30 10:02:47;;;;;;;7.07;3.67;;;28.40;86.70;;;;;;5039762;28;20045;-87
2022/06/30 10:05:15;;;;;;;6.03;4.03;;;28.40;85.30;;;;;;5071000;28;20028;-87
2022/06/30 10:07:42;;;;;;;4.22;3.83;;;28.40;86.40;;;;;;5019097;28;20044;-88
2022/06/30 10:10:11;;;;;;;5.55;4.25;;;28.40;86.00;;;;;;5031310;28;20487;-86
2022/06/30 10:12:38;;;;;;;4.32;3.92;;;28.20;85.20;;;;;;5014209;28;20029;-87
2022/06/30 10:15:06;;;;;;;4.20;3.83;;;28.10;87.20;;;;;;5034829;28;20041;-86
2022/06/30 10:17:34;;;;;;;5.82;4.07;;;28.00;85.00;;;;;;5039786;28;20021;-86
2022/06/30 10:20:01;;;;;;;5.70;3.78;;;28.00;83.40;;;;;;5047482;28;20487;-87
2022/06/30 10:22:28;;;;;;;10.68;8.85;;;28.00;83.80;;;;;;5054187;28;20043;-87
2022/06/30 10:24:56;;;;;;;8.73;4.05;;;28.00;86.60;;;;;;5031333;28;20040;-86
2022/06/30 10:27:25;;;;;;;4.78;4.13;;;27.90;85.10;;;;;;5036427;28;20025;-87
2022/06/30 10:30:12;;;;;;;5.65;4.10;;;27.80;82.90;;;;;;5031309;28;20037;-87
2022/06/30 10:32:59;;;;;;;4.78;4.38;;;27.70;84.20;;;;;;5017656;28;20043;-87
2022/06/30 10:35:36;;;;;;;7.68;3.75;;;27.70;88.30;;;;;;5044997;28;20036;-87
2022/06/30 10:38:34;;;;;;;5.88;3.80;;;27.70;84.40;;;;;;5055796;28;20111;-87
2022/06/30 10:41:14;;;;;;;7.55;4.00;;;27.60;79.80;;;;;;5068152;28;20043;-87
2022/06/30 10:44:05;;;;;;;5.20;3.45;;;27.60;81.30;;;;;;5056341;28;20479;-88
2022/06/30 10:46:56;;;;;;;4.82;3.97;;;27.60;82.90;;;;;;5047169;28;20048;-86
2022/06/30 10:49:27;;;;;;;4.20;3.08;;;27.70;82.70;;;;;;5048503;28;20029;-86
2022/06/30 10:52:17;;;;;;;3.63;3.10;;;27.90;74.50;;;;;;5027701;28;20028;-86
2022/06/30 10:54:45;;;;;;;6.97;3.60;;;28.10;78.80;;;;;;5052470;28;20040;-88
2022/06/30 10:57:12;;;;;;;3.17;2.80;;;28.30;74.60;;;;;;5047969;28;20525;-86
2022/06/30 10:59:43;;;;;;;4.93;3.35;;;28.40;74.90;;;;;;5053479;28;20025;-88
2022/06/30 11:02:09;;;;;;;3.72;2.83;;;28.60;71.60;;;;;;5037732;28;20045;-86
2022/06/30 11:04:43;;;;;;;4.72;3.50;;;28.70;69.10;;;;;;5042609;28;20063;-86
2022/06/30 11:07:14;;;;;;;4.85;4.05;;;28.70;72.60;;;;;;5046042;28;20124;-87
2022/06/30 11:09:50;;;;;;;4.28;3.28;;;28.80;76.40;;;;;;5017396;28;20642;-87
2022/06/30 11:12:18;;;;;;;4.93;3.67;;;28.80;75.80;;;;;;5048704;28;20024;-87
2022/06/30 11:14:57;;;;;;;6.57;3.53;;;28.90;73.10;;;;;;5033261;28;20098;-87
2022/06/30 11:17:25;;;;;;;5.10;3.45;;;29.10;71.10;;;;;;5029385;28;20067;-87
2022/06/30 11:20:03;;;;;;;5.43;3.40;;;29.10;69.80;;;;;;5013797;28;20094;-86
2022/06/30 11:22:30;;;;;;;4.35;3.45;;;29.10;71.40;;;;;;5038526;28;20513;-87
2022/06/30 11:24:58;;;;;;;3.55;3.25;;;28.90;69.70;;;;;;5032591;28;20098;-86
2022/06/30 11:27:28;;;;;;;4.47;3.38;;;28.80;69.20;;;;;;5033863;28;20551;-86
2022/06/30 11:30:11;;;;;;;5.43;3.50;;;28.70;70.70;;;;;;5017700;28;20047;-85
2022/06/30 11:32:38;;;;;;;3.45;3.15;;;28.60;72.40;;;;;;5014795;28;20394;-85
2022/06/30 11:35:04;;;;;;;3.63;3.17;;;28.50;74.20;;;;;;5040149;28;20395;-86
2022/06/30 11:37:33;;;;;;;3.92;3.28;;;28.40;73.20;;;;;;5013579;28;20067;-86
2022/06/30 11:40:17;;;;;;;4.25;3.22;;;28.40;72.60;;;;;;5049690;28;20033;-86
2022/06/30 11:42:43;;;;;;;6.28;3.42;;;28.30;74.70;;;;;;5029385;28;20033;-86
2022/06/30 11:45:19;;;;;;;4.18;3.03;;;28.30;77.30;;;;;;5025588;28;20106;-85
2022/06/30 11:47:55;;;;;;;4.60;3.53;;;28.20;72.60;;;;;;5018278;28;20090;-86
2022/06/30 11:50:23;;;;;;;5.13;3.95;;;28.10;73.50;;;;;;5049544;28;20045;-85
2022/06/30 11:52:52;;;;;;;4.90;3.25;;;28.10;72.60;;;;;;5050078;28;20033;-86
2022/06/30 11:55:18;;;;;;;5.55;3.22;;;28.10;77.20;;;;;;5032882;28;20097;-87
2022/06/30 11:57:50;;;;;;;4.53;3.20;;;28.10;80.60;;;;;;5051007;28;20051;-88
2022/06/30 12:00:20;;;;;;;3.90;3.50;;;28.30;77.20;;;;;;5034849;28;20075;-86
2022/06/30 12:02:47;;;;;;;5.65;3.63;;;28.50;72.00;;;;;;5046518;28;20053;-86
2022/06/30 12:05:16;;;;;;;7.53;4.88;;;28.80;73.90;;;;;;5048105;28;20039;-86
2022/06/30 12:07:42;;;;;;;6.45;3.30;;;29.10;73.30;;;;;;5017815;28;20457;-85
2022/06/30 12:10:11;;;;;;;3.85;3.28;;;29.30;71.60;;;;;;5052117;28;20029;-86
2022/06/30 12:12:37;;;;;;;4.85;3.17;;;29.40;66.60;;;;;;5033509;28;20086;-86
2022/06/30 12:15:07;;;;;;;5.45;3.83;;;29.30;65.00;;;;;;5034866;28;20082;-86
2022/06/30 12:17:36;;;;;;;3.75;3.38;;;29.40;65.00;;;;;;5051492;28;20498;-86
2022/06/30 12:20:04;;;;;;;3.15;2.85;;;29.50;68.30;;;;;;5017700;28;20593;-86
2022/06/30 12:22:31;;;;;;;3.22;2.92;;;29.70;70.40;;;;;;5040164;28;20120;-86
2022/06/30 12:24:57;;;;;;;8.57;3.33;;;29.90;64.60;;;;;;5036721;28;20434;-86
2022/06/30 12:27:41;;;;;;;4.47;3.67;;;30.00;62.00;;;;;;5041322;28;20029;-86
2022/06/30 12:30:12;;;;;;;3.85;3.28;;;30.10;65.60;;;;;;5051702;28;20040;-86
2022/06/30 12:32:42;;;;;;;6.03;3.67;;;30.20;64.80;;;;;;5024982;28;20032;-87
2022/06/30 12:35:11;;;;;;;5.78;3.33;;;30.30;63.40;;;;;;5038055;28;20029;-86
2022/06/30 12:37:42;;;;;;;3.08;2.88;;;30.20;60.50;;;;;;5036486;28;20063;-86
2022/06/30 12:40:13;;;;;;;5.65;3.10;;;30.40;63.30;;;;;;5048109;28;20559;-86
2022/06/30 12:42:42;;;;;;;6.97;3.10;;;30.70;65.20;;;;;;5058021;28;20064;-86
2022/06/30 12:45:35;;;;;;;4.50;2.80;;;31.10;62.20;;;;;;5027132;28;20029;-86
2022/06/30 12:48:06;;;;;;;4.13;2.70;;;31.40;59.50;;;;;;5046513;28;20041;-87
2022/06/30 12:50:37;;;;;;;3.40;2.63;;;31.70;59.60;;;;;;5046725;28;20028;-87
2022/06/30 12:53:24;;;;;;;4.60;2.90;;;32.00;61.60;;;;;;5044932;28;20037;-86
2022/06/30 12:56:05;;;;;;;5.47;2.83;;;32.50;59.70;;;;;;5063955;28;20036;-86
2022/06/30 12:58:52;;;;;;;8.00;3.20;;;32.80;58.10;;;;;;5035614;28;20028;-85